LPFL/FLW METAR and TAF weather

Enter ICAO airport designator
Station Type Date Time Source
LPFL METAR 2019/08/24 18:30 UTC NOAA

LPFL 241830Z VRB02KT 9999 SCT030 23/16 Q1025


Station Type Date Time Source
LPFL Decoded METAR 2019/08/24 18:30 UTC NOAA

Station name not available
Aug 24, 2019 - 02:30 PM EDT / 2019.08.24 1830 UTC
Wind: Variable at 2 MPH (2 KT):0
Visibility: greater than 7 mile(s):0
Sky conditions: partly cloudy
Temperature: 73 F (23 C)
Dew Point: 60 F (16 C)
Relative Humidity: 64%
Pressure (altimeter): 30.27 in. Hg (1025 hPa)
ob: LPFL 241830Z VRB02KT 9999 SCT030 23/16 Q1025
cycle: 18

Station Type Date Time Source
LPFL TAF UTC NOAA

Error!

Example: see airport list